Time;durP1;ratioP1;P1;durP2;ratioP2;P2;SDS_P1;SDS_P2;PMS_P1;PMS_P2;Temp;Humidity;BMP_temperature;BMP_pressure;BME280_temperature;BME280_humidity;BME280_pressure;Samples;Min_cycle;Max_cycle;Signal;HPM_P1;HPM_P2
2023/07/27 00:00:24;;;;;;;4.63;2.47;;;;;;;9.32;100.00;95933.41;1021950;28;20023;-74
2023/07/27 00:00:55;;;;;;;4.40;2.33;;;;;;;9.34;100.00;95936.56;1014583;29;20510;-74
2023/07/27 00:01:25;;;;;;;3.70;2.20;;;;;;;9.32;100.00;95928.16;1014882;29;20043;-75
2023/07/27 00:01:56;;;;;;;4.70;2.72;;;;;;;9.35;100.00;95938.91;1014663;29;20036;-74
2023/07/27 00:02:26;;;;;;;5.25;2.58;;;;;;;9.35;100.00;95943.38;1014776;29;20020;-75
2023/07/27 00:02:57;;;;;;;6.00;2.60;;;;;;;9.33;100.00;95941.03;1018673;28;20854;-74
2023/07/27 00:03:27;;;;;;;3.17;2.47;;;;;;;9.33;100.00;95940.22;1026496;28;20023;-76
2023/07/27 00:03:58;;;;;;;7.32;2.92;;;;;;;9.32;100.00;95944.69;1022728;28;20034;-75
2023/07/27 00:04:31;;;;;;;6.03;2.70;;;;;;;9.29;100.00;95933.88;1026637;28;20060;-75
2023/07/27 00:05:02;;;;;;;3.60;2.38;;;;;;;9.32;100.00;95944.69;1018678;29;20494;-74
2023/07/27 00:05:32;;;;;;;2.50;2.10;;;;;;;9.26;100.00;95929.97;1018535;29;20267;-74
2023/07/27 00:06:03;;;;;;;4.03;2.38;;;;;;;9.32;100.00;95938.63;1011355;29;20277;-75
2023/07/27 00:06:34;;;;;;;4.47;2.72;;;;;;;9.30;100.00;95930.25;1015122;29;20024;-75
2023/07/27 00:07:04;;;;;;;3.05;2.63;;;;;;;9.25;100.00;95923.13;1018466;29;20083;-74
2023/07/27 00:07:35;;;;;;;6.90;2.58;;;;;;;9.25;100.00;95920.50;1018817;29;20024;-74
2023/07/27 00:08:05;;;;;;;4.00;2.50;;;;;;;9.30;100.00;95933.66;1014801;29;20032;-74
2023/07/27 00:08:36;;;;;;;5.35;2.97;;;;;;;9.31;100.00;95939.69;1019060;29;20454;-74
2023/07/27 00:09:06;;;;;;;4.72;2.80;;;;;;;9.20;100.00;95921.25;1014495;29;20043;-74
2023/07/27 00:09:37;;;;;;;3.08;2.58;;;;;;;9.24;100.00;95926.00;1014640;29;20099;-75
2023/07/27 00:10:07;;;;;;;3.22;2.13;;;;;;;9.20;100.00;95926.50;1014743;29;20020;-74
2023/07/27 00:10:37;;;;;;;3.13;2.30;;;;;;;9.22;100.00;95923.63;1017869;29;20106;-73
2023/07/27 00:11:11;;;;;;;3.13;2.20;;;;;;;9.27;100.00;95934.16;1013921;29;20064;-73
2023/07/27 00:11:41;;;;;;;4.10;2.53;;;;;;;9.25;100.00;95924.97;1014739;29;20036;-74
2023/07/27 00:12:12;;;;;;;3.92;2.50;;;;;;;9.19;100.00;95909.22;1014839;29;20837;-74
2023/07/27 00:12:42;;;;;;;2.97;2.42;;;;;;;9.26;100.00;95926.56;1015099;29;20024;-72
2023/07/27 00:13:13;;;;;;;2.83;2.50;;;;;;;9.24;100.00;95923.38;1014542;29;20028;-74
2023/07/27 00:13:43;;;;;;;3.65;2.65;;;;;;;9.24;100.00;95928.63;1014782;29;20028;-74
2023/07/27 00:14:14;;;;;;;4.70;2.58;;;;;;;9.25;100.00;95927.56;1018711;28;20486;-74
2023/07/27 00:14:44;;;;;;;3.17;2.28;;;;;;;9.25;100.00;95930.97;1026810;28;20626;-73
2023/07/27 00:15:15;;;;;;;7.20;2.75;;;;;;;9.25;100.00;95923.13;1022353;28;20034;-73
2023/07/27 00:15:45;;;;;;;2.55;2.20;;;;;;;9.26;100.00;95923.94;1018705;29;20036;-73
2023/07/27 00:16:15;;;;;;;4.00;2.58;;;;;;;9.25;100.00;95922.34;1018474;29;20086;-75
2023/07/27 00:16:46;;;;;;;3.63;2.42;;;;;;;9.25;100.00;95920.50;1010946;29;20036;-75
2023/07/27 00:17:16;;;;;;;2.92;2.30;;;;;;;9.23;100.00;95919.19;1014520;29;20506;-75
2023/07/27 00:17:47;;;;;;;4.32;2.47;;;;;;;9.24;100.00;95920.78;1018421;29;20032;-75
2023/07/27 00:18:17;;;;;;;3.65;2.55;;;;;;;9.16;100.00;95912.34;1014653;29;20042;-73
2023/07/27 00:18:48;;;;;;;3.47;2.22;;;;;;;9.20;100.00;95918.66;1010861;29;20025;-73
2023/07/27 00:19:19;;;;;;;2.45;1.95;;;;;;;9.20;100.00;95916.03;1010647;29;20028;-73
2023/07/27 00:19:50;;;;;;;5.38;2.50;;;;;;;9.20;100.00;95921.25;1010985;29;20661;-75
2023/07/27 00:20:23;;;;;;;5.28;2.50;;;;;;;9.18;100.00;95923.34;1015253;29;20265;-73
2023/07/27 00:20:53;;;;;;;7.05;2.83;;;;;;;9.09;100.00;95901.28;1022331;29;20267;-73
2023/07/27 00:21:24;;;;;;;7.80;2.60;;;;;;;9.16;100.00;95919.41;1022418;28;20027;-73
2023/07/27 00:21:54;;;;;;;4.13;2.70;;;;;;;9.14;100.00;95917.03;1018523;29;20028;-76
2023/07/27 00:22:25;;;;;;;5.22;2.45;;;;;;;9.15;100.00;95917.81;1018714;29;20040;-76
2023/07/27 00:22:55;;;;;;;4.63;2.45;;;;;;;9.15;100.00;95918.63;1020864;28;20510;-75
2023/07/27 00:23:25;;;;;;;2.60;2.40;;;;;;;9.16;100.00;95914.16;1014592;29;20024;-75
2023/07/27 00:23:56;;;;;;;3.83;2.55;;;;;;;9.07;100.00;95902.56;1018520;29;20031;-74
2023/07/27 00:24:26;;;;;;;3.25;2.40;;;;;;;9.14;100.00;95917.03;1014539;29;20036;-73
2023/07/27 00:24:57;;;;;;;4.30;2.55;;;;;;;9.08;100.00;95906.75;1014654;29;20553;-74
2023/07/27 00:25:27;;;;;;;4.32;2.58;;;;;;;9.13;100.00;95915.44;1010739;29;20032;-73
2023/07/27 00:26:01;;;;;;;3.03;2.72;;;;;;;9.10;100.00;95905.47;1010747;29;20157;-75
2023/07/27 00:26:31;;;;;;;2.58;2.35;;;;;;;9.10;100.00;95909.91;1022483;29;20031;-75
2023/07/27 00:27:02;;;;;;;2.92;2.60;;;;;;;9.11;100.00;95912.28;1015177;29;20320;-74
2023/07/27 00:27:32;;;;;;;4.00;2.35;;;;;;;9.10;100.00;95910.69;1014428;29;20055;-73
2023/07/27 00:28:03;;;;;;;9.57;2.45;;;;;;;9.11;100.00;95916.72;1014572;29;20024;-74
2023/07/27 00:28:33;;;;;;;3.83;2.30;;;;;;;9.08;100.00;95906.75;1018692;29;20512;-74
2023/07/27 00:29:04;;;;;;;3.28;2.47;;;;;;;9.09;100.00;95910.97;1022744;28;20094;-74
2023/07/27 00:29:34;;;;;;;3.75;2.67;;;;;;;9.08;100.00;95904.91;1030375;28;20070;-77
2023/07/27 00:30:05;;;;;;;3.97;2.80;;;;;;;9.10;100.00;95910.69;1034576;28;20029;-75
2023/07/27 00:30:36;;;;;;;6.55;2.35;;;;;;;9.07;100.00;95907.78;1021873;29;20018;-73
2023/07/27 00:31:06;;;;;;;6.93;2.58;;;;;;;9.06;100.00;95908.84;1022534;29;20279;-75
2023/07/27 00:31:37;;;;;;;3.85;2.70;;;;;;;9.04;100.00;95909.06;1018465;29;20028;-74
2023/07/27 00:32:08;;;;;;;3.40;2.60;;;;;;;8.95;100.00;95893.06;1014730;29;20032;-73
2023/07/27 00:32:38;;;;;;;3.72;2.70;;;;;;;9.04;100.00;95914.31;1018544;29;20034;-73
2023/07/27 00:33:09;;;;;;;3.45;2.70;;;;;;;9.02;100.00;95900.69;1025132;28;20031;-76
2023/07/27 00:33:40;;;;;;;3.60;2.53;;;;;;;8.94;100.00;95899.31;1026469;28;20018;-74
2023/07/27 00:34:10;;;;;;;4.35;2.78;;;;;;;9.01;100.00;95906.94;1022720;28;20792;-75
2023/07/27 00:34:40;;;;;;;4.55;2.72;;;;;;;8.97;100.00;95906.66;1022490;29;20106;-73
2023/07/27 00:35:11;;;;;;;5.97;2.63;;;;;;;9.00;100.00;95915.06;1018661;29;20027;-74
2023/07/27 00:35:41;;;;;;;5.43;2.55;;;;;;;8.99;100.00;95916.91;1022517;29;20027;-75
2023/07/27 00:36:12;;;;;;;4.32;2.88;;;;;;;8.96;100.00;95915.56;1018480;29;20012;-72
2023/07/27 00:36:42;;;;;;;3.63;2.40;;;;;;;8.99;100.00;95914.28;1026427;28;20023;-73
2023/07/27 00:37:13;;;;;;;3.35;2.45;;;;;;;8.99;100.00;95914.28;1026430;28;20026;-74
2023/07/27 00:37:43;;;;;;;2.95;2.30;;;;;;;8.91;100.00;95906.84;1026541;28;20049;-74
2023/07/27 00:38:14;;;;;;;2.65;2.28;;;;;;;8.97;100.00;95916.34;1020796;28;20034;-73
2023/07/27 00:38:44;;;;;;;5.97;2.63;;;;;;;8.98;100.00;95916.09;1018735;29;20509;-73
2023/07/27 00:39:15;;;;;;;4.05;2.58;;;;;;;8.93;100.00;95899.56;1018588;29;20039;-75
2023/07/27 00:39:48;;;;;;;3.15;2.20;;;;;;;8.92;100.00;95911.88;1018636;28;20023;-76
2023/07/27 00:40:18;;;;;;;3.83;2.65;;;;;;;9.00;100.00;95920.31;1018649;29;20549;-73
2023/07/27 00:40:49;;;;;;;5.55;2.58;;;;;;;8.94;100.00;95911.59;1018043;29;20271;-73
2023/07/27 00:41:20;;;;;;;5.80;2.38;;;;;;;8.94;100.00;95916.84;1018392;29;20034;-73
2023/07/27 00:41:50;;;;;;;4.45;2.78;;;;;;;8.95;100.00;95915.78;1014719;29;20701;-74
2023/07/27 00:42:21;;;;;;;5.82;2.47;;;;;;;8.90;100.00;95905.28;1018671;29;20040;-73
2023/07/27 00:42:51;;;;;;;3.53;2.67;;;;;;;8.95;100.00;95918.41;1014134;29;20043;-73
2023/07/27 00:43:22;;;;;;;4.43;2.80;;;;;;;8.94;100.00;95916.84;1014497;29;20028;-71
2023/07/27 00:43:52;;;;;;;4.90;2.70;;;;;;;8.96;100.00;95920.00;1018417;29;20019;-73
2023/07/27 00:44:23;;;;;;;4.00;2.35;;;;;;;8.93;100.00;95921.28;1018522;29;20028;-72
2023/07/27 00:44:53;;;;;;;3.55;2.42;;;;;;;8.95;100.00;95918.41;1018327;29;20080;-74
2023/07/27 00:45:23;;;;;;;4.32;2.50;;;;;;;8.90;100.00;95906.06;1018626;29;20568;-73
2023/07/27 00:45:54;;;;;;;3.67;2.90;;;;;;;8.87;100.00;95901.34;1014521;29;20114;-73
2023/07/27 00:46:24;;;;;;;4.00;2.90;;;;;;;8.88;100.00;95907.34;1014656;29;20036;-73
2023/07/27 00:46:55;;;;;;;4.28;2.50;;;;;;;8.90;100.00;95910.53;1018395;29;20083;-75
2023/07/27 00:47:25;;;;;;;3.28;2.53;;;;;;;8.90;100.00;95910.53;1018705;29;20474;-75
2023/07/27 00:47:56;;;;;;;3.38;2.83;;;;;;;8.94;100.00;95911.59;1022396;28;20098;-75
2023/07/27 00:48:27;;;;;;;16.30;4.03;;;;;;;8.87;100.00;95905.78;1017534;29;20030;-73
2023/07/27 00:48:57;;;;;;;15.10;3.15;;;;;;;8.86;100.00;95899.75;1019904;29;20023;-74
2023/07/27 00:49:28;;;;;;;5.22;3.15;;;;;;;8.92;100.00;95917.09;1014664;29;20028;-74
2023/07/27 00:49:59;;;;;;;3.45;2.25;;;;;;;8.93;100.00;95910.03;1016674;29;20193;-74
2023/07/27 00:50:30;;;;;;;3.53;2.70;;;;;;;8.84;100.00;95895.81;1017700;29;20708;-73
2023/07/27 00:51:00;;;;;;;5.75;2.20;;;;;;;8.92;100.00;95916.28;1018417;29;20445;-73
2023/07/27 00:51:34;;;;;;;3.05;2.55;;;;;;;8.90;100.00;95905.28;1018393;29;20263;-72
2023/07/27 00:52:05;;;;;;;5.85;2.75;;;;;;;8.91;100.00;95912.09;1026526;28;20023;-73
2023/07/27 00:52:36;;;;;;;4.38;2.63;;;;;;;8.89;100.00;95908.94;1018192;29;20270;-73
2023/07/27 00:53:07;;;;;;;8.25;2.83;;;;;;;8.90;100.00;95910.53;1022652;29;20269;-73
2023/07/27 00:53:37;;;;;;;3.80;2.55;;;;;;;8.89;100.00;95916.81;1018905;29;20109;-73
2023/07/27 00:54:09;;;;;;;2.63;2.25;;;;;;;8.92;100.00;95913.66;1014838;29;20348;-73
2023/07/27 00:54:39;;;;;;;6.53;2.40;;;;;;;8.86;100.00;95910.22;1018413;29;20118;-73
2023/07/27 00:55:10;;;;;;;3.40;2.40;;;;;;;8.89;100.00;95912.34;1024276;28;20282;-72
2023/07/27 00:55:40;;;;;;;4.07;2.65;;;;;;;8.90;100.00;95910.53;1022479;29;20038;-74
2023/07/27 00:56:10;;;;;;;3.63;2.50;;;;;;;8.87;100.00;95906.56;1014523;29;20099;-72
2023/07/27 00:56:41;;;;;;;3.03;2.28;;;;;;;8.85;100.00;95905.22;1022352;29;20090;-75
2023/07/27 00:57:11;;;;;;;2.95;2.25;;;;;;;8.85;100.00;95898.19;1022487;29;20020;-74
2023/07/27 00:57:42;;;;;;;4.78;2.65;;;;;;;8.88;100.00;95908.13;1014643;29;20016;-72
2023/07/27 00:58:12;;;;;;;2.63;2.05;;;;;;;8.85;100.00;95900.00;1014485;29;20032;-73
2023/07/27 00:58:43;;;;;;;3.53;2.20;;;;;;;8.81;100.00;95896.28;1026339;28;20026;-74
2023/07/27 00:59:13;;;;;;;3.30;2.25;;;;;;;8.85;100.00;95903.41;1022423;29;20038;-72
2023/07/27 00:59:44;;;;;;;2.70;2.47;;;;;;;8.88;100.00;95912.59;1018469;29;20011;-75
2023/07/27 01:00:14;;;;;;;3.85;2.20;;;;;;;8.80;100.00;95894.72;1014412;29;20024;-72
2023/07/27 01:00:45;;;;;;;5.10;2.25;;;;;;;8.86;100.00;95909.44;1009897;29;20120;-72
2023/07/27 01:01:15;;;;;;;7.50;2.60;;;;;;;8.78;100.00;95897.56;1014414;29;20040;-72
2023/07/27 01:01:46;;;;;;;3.33;2.20;;;;;;;8.86;100.00;95905.00;1010792;29;20025;-73
2023/07/27 01:02:16;;;;;;;3.83;2.50;;;;;;;8.87;100.00;95911.00;1014530;29;20028;-72
2023/07/27 01:02:47;;;;;;;6.20;2.67;;;;;;;8.80;100.00;95894.72;1014586;29;20031;-73
2023/07/27 01:03:18;;;;;;;4.75;2.50;;;;;;;8.85;100.00;95907.84;1014514;29;20024;-73
2023/07/27 01:03:48;;;;;;;5.72;2.83;;;;;;;8.84;100.00;95906.28;1018411;29;20032;-73
2023/07/27 01:04:19;;;;;;;5.03;2.58;;;;;;;8.82;100.00;95903.91;1018573;29;20279;-73
2023/07/27 01:04:49;;;;;;;7.50;2.28;;;;;;;8.80;100.00;95905.19;1018804;28;20038;-73
2023/07/27 01:05:19;;;;;;;3.22;2.50;;;;;;;8.75;100.00;95892.81;1014532;29;20049;-74
2023/07/27 01:05:50;;;;;;;3.47;2.53;;;;;;;8.78;100.00;95902.81;1014610;29;20110;-75
2023/07/27 01:06:20;;;;;;;4.97;2.30;;;;;;;8.79;100.00;95901.00;1022565;29;20374;-73
2023/07/27 01:06:51;;;;;;;2.78;2.38;;;;;;;8.78;100.00;95896.78;1018333;29;20043;-73
2023/07/27 01:07:21;;;;;;;3.40;2.20;;;;;;;8.82;100.00;95909.16;1018394;29;20571;-73
2023/07/27 01:07:52;;;;;;;3.13;2.35;;;;;;;8.79;100.00;95903.63;1018395;29;20035;-74
2023/07/27 01:08:22;;;;;;;4.22;2.10;;;;;;;8.82;100.00;95903.91;1014663;29;20036;-72
2023/07/27 01:08:53;;;;;;;3.15;2.50;;;;;;;8.80;100.00;95902.56;1018430;29;20035;-72
2023/07/27 01:09:23;;;;;;;4.20;2.30;;;;;;;8.81;100.00;95901.53;1014598;29;20107;-72
2023/07/27 01:09:54;;;;;;;4.70;2.22;;;;;;;8.81;100.00;95904.94;1022558;28;20579;-73
2023/07/27 01:10:53;;;;;;;3.35;2.53;;;;;;;8.71;100.00;95891.75;1017903;29;20410;-74
2023/07/27 01:11:35;;;;;;;3.75;2.30;;;;;;;8.76;100.00;95904.91;1021705;29;20035;-73
2023/07/27 01:12:14;;;;;;;5.28;2.22;;;;;;;8.78;100.00;95907.25;1019634;29;20318;-73
2023/07/27 01:12:55;;;;;;;7.13;2.40;;;;;;;8.77;100.00;95900.44;1026281;28;20349;-72
2023/07/27 01:13:31;;;;;;;4.20;2.28;;;;;;;8.74;100.00;95907.75;1026420;28;21005;-74
2023/07/27 01:14:44;;;;;;;4.03;2.03;;;;;;;8.73;100.00;95893.09;1010725;29;20364;-73
2023/07/27 01:15:15;;;;;;;3.35;2.40;;;;;;;8.76;100.00;95898.88;1020640;29;20299;-74
2023/07/27 01:15:50;;;;;;;3.10;2.40;;;;;;;8.74;100.00;95897.28;1019461;28;20279;-72
2023/07/27 01:16:42;;;;;;;4.57;2.65;;;;;;;8.76;100.00;95904.91;1018588;29;20310;-72
2023/07/27 01:17:21;;;;;;;3.33;2.47;;;;;;;8.76;100.00;95898.88;1010466;29;20716;-73
2023/07/27 01:18:01;;;;;;;3.95;2.00;;;;;;;8.73;100.00;95890.47;1022204;28;20271;-73
2023/07/27 01:18:52;;;;;;;4.18;2.35;;;;;;;8.73;100.00;95890.47;1026415;28;20262;-74
2023/07/27 01:19:23;;;;;;;3.65;2.45;;;;;;;8.71;100.00;95895.16;1022305;29;20568;-73
2023/07/27 01:20:05;;;;;;;4.55;2.58;;;;;;;8.74;100.00;95894.66;1022255;29;20326;-74
2023/07/27 01:20:46;;;;;;;4.90;2.65;;;;;;;8.70;100.00;95890.97;1025835;28;20026;-74
2023/07/27 01:21:17;;;;;;;;;;;;;;;8.71;100.00;95887.31;1021694;29;20641;-72
2023/07/27 01:21:49;;;;;;;5.30;2.20;;;;;;;8.71;100.00;95892.53;1018457;29;20353;-74
2023/07/27 01:22:41;;;;;;;4.60;2.40;;;;;;;8.69;100.00;95889.41;1020289;29;20770;-75
2023/07/27 01:23:39;;;;;;;5.63;3.08;;;;;;;8.69;100.00;95886.78;1026279;28;20254;-74
2023/07/27 01:24:12;;;;;;;3.10;2.28;;;;;;;8.68;100.00;95887.78;1030338;28;20909;-72
2023/07/27 01:25:00;;;;;;;5.10;2.58;;;;;;;8.68;100.00;95885.19;1023266;28;20267;-73
2023/07/27 01:25:36;;;;;;;3.45;2.13;;;;;;;8.69;100.00;95888.59;1018348;29;20338;-76
2023/07/27 01:26:24;;;;;;;8.25;2.53;;;;;;;8.67;100.00;95883.59;1019068;29;20255;-70
2023/07/27 01:27:37;;;;;;;3.33;2.03;;;;;;;8.67;100.00;95885.44;1026368;28;20266;-74
2023/07/27 01:28:12;;;;;;;4.25;2.50;;;;;;;8.68;100.00;95885.19;1030193;28;20269;-75
2023/07/27 01:29:01;;;;;;;4.65;2.65;;;;;;;8.65;100.00;95880.47;1026487;28;20258;-73
2023/07/27 01:30:02;;;;;;;3.75;2.40;;;;;;;8.66;100.00;95883.88;1022224;29;20277;-75
2023/07/27 01:30:49;;;;;;;16.17;2.85;;;;;;;8.66;100.00;95884.66;1021334;29;20267;-75
2023/07/27 01:31:23;;;;;;;2.83;2.28;;;;;;;8.65;100.00;95890.94;1024605;28;20019;-74
2023/07/27 01:31:54;;;;;;;3.35;2.38;;;;;;;8.59;100.00;95875.44;1023612;29;20797;-73
2023/07/27 01:32:24;;;;;;;4.75;2.28;;;;;;;8.64;100.00;95886.72;1019595;29;20267;-73
2023/07/27 01:33:00;;;;;;;3.42;2.13;;;;;;;8.58;100.00;95876.44;1016865;29;20064;-74
2023/07/27 01:33:33;;;;;;;3.95;2.47;;;;;;;8.40;100.00;95849.59;1013467;29;20756;-74
2023/07/27 01:34:04;;;;;;;2.95;2.33;;;;;;;8.62;100.00;95874.94;1019873;29;20833;-72
2023/07/27 01:34:35;;;;;;;3.97;2.17;;;;;;;8.63;100.00;95879.91;1023378;29;20640;-74
2023/07/27 01:35:08;;;;;;;2.95;2.53;;;;;;;8.62;100.00;95877.56;1015883;29;20283;-74
2023/07/27 01:36:00;;;;;;;3.67;2.40;;;;;;;8.61;100.00;95871.50;1015931;29;20060;-74
2023/07/27 01:36:37;;;;;;;3.60;2.42;;;;;;;8.58;100.00;95874.63;1017171;29;20954;-74
2023/07/27 01:37:09;;;;;;;3.15;2.10;;;;;;;8.59;100.00;95878.81;1023718;29;20825;-73
2023/07/27 01:37:42;;;;;;;3.20;2.40;;;;;;;8.52;100.00;95867.78;1023744;29;20262;-73
2023/07/27 01:38:13;;;;;;;3.17;2.38;;;;;;;8.55;100.00;95867.28;1019354;29;20334;-74
2023/07/27 01:38:44;;;;;;;3.83;2.75;;;;;;;8.59;100.00;95872.81;1020477;29;20772;-72
2023/07/27 01:39:14;;;;;;;3.38;2.47;;;;;;;8.59;100.00;95870.19;1020531;29;20035;-73
2023/07/27 01:39:48;;;;;;;4.38;2.67;;;;;;;8.54;100.00;95859.66;1019695;28;20059;-75
2023/07/27 01:40:18;;;;;;;2.97;2.20;;;;;;;8.56;100.00;95874.09;1019302;29;20027;-74
2023/07/27 01:40:49;;;;;;;5.80;2.75;;;;;;;8.52;100.00;95862.53;1023282;29;20286;-73
2023/07/27 01:41:19;;;;;;;2.85;2.22;;;;;;;8.51;100.00;95855.72;1019727;29;20031;-75
2023/07/27 01:41:50;;;;;;;3.90;3.00;;;;;;;8.59;100.00;95878.03;1015553;29;20032;-73
2023/07/27 01:42:20;;;;;;;4.85;2.28;;;;;;;8.58;100.00;95869.38;1015671;29;20036;-74
2023/07/27 01:42:51;;;;;;;3.20;2.60;;;;;;;8.57;100.00;95859.19;1019383;29;20024;-72
2023/07/27 01:43:22;;;;;;;3.70;2.38;;;;;;;8.57;100.00;95870.44;1022849;28;20035;-73
2023/07/27 01:43:52;;;;;;;4.53;3.00;;;;;;;8.59;100.00;95868.38;1019648;29;20073;-71
2023/07/27 01:44:24;;;;;;;4.63;2.28;;;;;;;8.60;100.00;95869.94;1027733;28;20027;-73
2023/07/27 01:44:54;;;;;;;3.78;2.30;;;;;;;8.57;100.00;95865.19;1019405;29;20421;-73
2023/07/27 01:45:24;;;;;;;3.22;2.28;;;;;;;8.57;100.00;95854.72;1019768;29;20263;-72
2023/07/27 01:45:55;;;;;;;9.00;2.67;;;;;;;8.61;100.00;95865.50;1015729;29;20036;-74
2023/07/27 01:46:26;;;;;;;6.78;2.35;;;;;;;8.61;100.00;95866.28;1023509;28;20022;-73
2023/07/27 01:46:56;;;;;;;4.68;2.40;;;;;;;8.58;100.00;95860.75;1019643;29;20039;-73
2023/07/27 01:47:27;;;;;;;3.03;2.42;;;;;;;8.55;100.00;95859.44;1019763;29;20267;-73
2023/07/27 01:47:57;;;;;;;3.58;2.50;;;;;;;8.58;100.00;95864.16;1015770;29;20039;-74
2023/07/27 01:48:28;;;;;;;3.83;2.67;;;;;;;8.61;100.00;95866.28;1015466;29;20032;-73
2023/07/27 01:48:58;;;;;;;3.63;2.15;;;;;;;8.55;100.00;95862.06;1015785;29;20814;-73
2023/07/27 01:49:29;;;;;;;3.25;2.60;;;;;;;8.52;100.00;95861.72;1015615;29;20119;-73
2023/07/27 01:49:59;;;;;;;3.72;2.35;;;;;;;8.57;100.00;95867.81;1011826;29;20024;-72
2023/07/27 01:50:30;;;;;;;5.03;2.40;;;;;;;8.47;100.00;95854.63;1015329;29;20043;-73
2023/07/27 01:51:00;;;;;;;4.18;2.78;;;;;;;8.57;100.00;95870.44;1015507;29;20032;-73
2023/07/27 01:51:31;;;;;;;3.78;2.60;;;;;;;8.52;100.00;95859.94;1011945;29;20443;-73
2023/07/27 01:52:01;;;;;;;3.08;1.90;;;;;;;8.59;100.00;95876.22;1011802;29;20059;-73
2023/07/27 01:52:32;;;;;;;3.50;2.45;;;;;;;8.54;100.00;95868.31;1015596;29;20080;-74
2023/07/27 01:53:04;;;;;;;3.92;2.42;;;;;;;8.57;100.00;95874.88;1019529;29;20055;-74
2023/07/27 01:53:35;;;;;;;2.78;2.35;;;;;;;8.56;100.00;95865.44;1019560;29;20283;-72
2023/07/27 01:54:06;;;;;;;5.53;2.30;;;;;;;8.57;100.00;95870.44;1019710;29;20020;-73
2023/07/27 01:54:37;;;;;;;3.45;2.05;;;;;;;8.52;100.00;95861.72;1019646;29;20027;-74
2023/07/27 01:55:08;;;;;;;4.07;2.17;;;;;;;8.55;100.00;95861.25;1015618;29;20082;-75
2023/07/27 01:55:38;;;;;;;3.60;2.40;;;;;;;8.57;100.00;95861.78;1019662;29;20758;-72
2023/07/27 01:56:09;;;;;;;2.92;2.33;;;;;;;8.50;100.00;95860.16;1019648;29;20510;-75
2023/07/27 01:56:39;;;;;;;4.28;2.35;;;;;;;8.56;100.00;95866.25;1023527;29;20401;-72
2023/07/27 01:57:09;;;;;;;4.60;2.25;;;;;;;8.57;100.00;95870.44;1015578;29;20031;-72
2023/07/27 01:57:40;;;;;;;4.28;2.40;;;;;;;8.56;100.00;95863.63;1019642;29;20039;-74
2023/07/27 01:58:10;;;;;;;4.07;2.53;;;;;;;8.49;100.00;95852.56;1023624;29;20031;-74
2023/07/27 01:58:41;;;;;;;2.63;2.17;;;;;;;8.55;100.00;95864.66;1019597;29;20020;-75
2023/07/27 01:59:11;;;;;;;6.28;2.78;;;;;;;8.57;100.00;95873.03;1011659;29;20043;-75
2023/07/27 01:59:42;;;;;;;5.32;2.40;;;;;;;8.53;100.00;95855.47;1007849;29;20029;-74
2023/07/27 02:00:13;;;;;;;3.95;2.33;;;;;;;8.49;100.00;95857.81;1015544;29;20433;-73
2023/07/27 02:00:43;;;;;;;3.35;2.17;;;;;;;8.56;100.00;95874.09;1015116;29;20028;-74
2023/07/27 02:01:14;;;;;;;3.58;2.80;;;;;;;8.55;100.00;95867.28;1023537;28;20031;-75
2023/07/27 02:01:44;;;;;;;3.75;2.33;;;;;;;8.50;100.00;95862.78;1023576;28;20367;-74
2023/07/27 02:02:15;;;;;;;3.65;2.40;;;;;;;8.53;100.00;95864.13;1015665;29;20024;-73
2023/07/27 02:02:45;;;;;;;3.42;2.20;;;;;;;8.54;100.00;95863.06;1015773;29;20088;-73
2023/07/27 02:03:16;;;;;;;3.17;2.22;;;;;;;8.49;100.00;95852.56;1019784;29;20400;-73
2023/07/27 02:03:47;;;;;;;3.17;2.20;;;;;;;8.54;100.00;95862.28;1023495;28;20023;-71
2023/07/27 02:04:17;;;;;;;6.60;2.50;;;;;;;8.47;100.00;95849.41;1023668;29;20544;-72
2023/07/27 02:04:48;;;;;;;4.07;2.65;;;;;;;8.50;100.00;95854.13;1015909;29;20088;-75
2023/07/27 02:05:20;;;;;;;3.78;2.45;;;;;;;8.45;100.00;95849.66;1015664;29;20494;-74
2023/07/27 02:05:50;;;;;;;4.10;2.30;;;;;;;8.46;100.00;95839.97;1015522;29;20175;-74
2023/07/27 02:06:21;;;;;;;4.40;2.85;;;;;;;8.52;100.00;95859.94;1011867;29;20352;-73
2023/07/27 02:06:51;;;;;;;3.83;2.20;;;;;;;8.47;100.00;95852.00;1012077;29;20029;-73
2023/07/27 02:07:22;;;;;;;5.13;2.83;;;;;;;8.52;100.00;95857.31;1015930;29;20092;-74
2023/07/27 02:07:52;;;;;;;6.03;2.60;;;;;;;8.51;100.00;95858.31;1015789;29;20483;-73
2023/07/27 02:08:22;;;;;;;4.60;2.53;;;;;;;8.45;100.00;95856.69;1023679;29;20027;-74
2023/07/27 02:08:53;;;;;;;3.20;2.38;;;;;;;8.46;100.00;95853.84;1022280;28;20071;-73
2023/07/27 02:09:25;;;;;;;4.00;2.63;;;;;;;8.47;100.00;95858.03;1023551;28;20025;-72
2023/07/27 02:09:55;;;;;;;4.80;2.38;;;;;;;8.48;100.00;95857.00;1023261;29;20058;-72
2023/07/27 02:10:25;;;;;;;3.13;2.25;;;;;;;8.49;100.00;95852.56;1019369;29;20270;-75
2023/07/27 02:11:05;;;;;;;4.25;2.00;;;;;;;8.44;100.00;95844.66;1023342;29;20071;-74
2023/07/27 02:11:35;;;;;;;3.28;2.13;;;;;;;8.46;100.00;95858.28;1019511;29;20051;-72
2023/07/27 02:12:11;;;;;;;3.85;2.45;;;;;;;8.47;100.00;95854.63;1015415;29;20264;-73
2023/07/27 02:12:44;;;;;;;3.47;2.20;;;;;;;8.46;100.00;95847.84;1019324;29;20030;-73
2023/07/27 02:13:20;;;;;;;2.83;2.15;;;;;;;8.48;100.00;95850.97;1019372;29;20295;-73
2023/07/27 02:14:11;;;;;;;3.22;2.13;;;;;;;8.51;100.00;95858.31;1015475;29;20832;-72
2023/07/27 02:14:45;;;;;;;3.08;2.17;;;;;;;8.45;100.00;95851.47;1023467;28;20270;-73
2023/07/27 02:15:25;;;;;;;3.45;2.15;;;;;;;8.42;100.00;95841.53;1023560;29;20267;-73
2023/07/27 02:16:09;;;;;;;3.00;2.10;;;;;;;8.44;100.00;95847.28;1019400;29;20271;-73
2023/07/27 02:16:44;;;;;;;3.38;2.63;;;;;;;8.52;100.00;95859.13;1015908;29;20705;-75
2023/07/27 02:17:24;;;;;;;5.22;2.50;;;;;;;8.50;100.00;95854.13;1011840;29;20280;-73
2023/07/27 02:18:07;;;;;;;3.60;2.35;;;;;;;8.41;100.00;95835.47;1019523;29;20279;-75
2023/07/27 02:18:37;;;;;;;2.75;2.50;;;;;;;8.50;100.00;95859.38;1019753;29;20028;-73
2023/07/27 02:19:08;;;;;;;4.72;2.42;;;;;;;8.51;100.00;95850.47;1015713;29;20425;-74
2023/07/27 02:19:38;;;;;;;4.22;2.20;;;;;;;8.52;100.00;95849.47;1015650;29;20028;-74
2023/07/27 02:20:13;;;;;;;3.75;2.30;;;;;;;8.53;100.00;95856.28;1015639;29;20061;-72
2023/07/27 02:20:43;;;;;;;4.57;2.42;;;;;;;8.53;100.00;95853.66;1015070;29;20088;-74
2023/07/27 02:21:14;;;;;;;4.38;2.05;;;;;;;8.45;100.00;95841.00;1023513;29;20356;-75
2023/07/27 02:21:44;;;;;;;2.78;2.03;;;;;;;8.51;100.00;95853.09;1015732;29;20381;-71
2023/07/27 02:22:18;;;;;;;2.83;2.38;;;;;;;8.52;100.00;95849.47;1024033;28;20035;-73
2023/07/27 02:22:48;;;;;;;3.55;2.22;;;;;;;8.54;100.00;95844.75;1012754;29;20107;-74
2023/07/27 02:23:22;;;;;;;4.85;2.42;;;;;;;8.49;100.00;95837.66;1012310;29;20268;-74
2023/07/27 02:23:52;;;;;;;3.80;2.40;;;;;;;8.55;100.00;95845.53;1017302;29;20032;-73
2023/07/27 02:24:24;;;;;;;6.78;2.67;;;;;;;8.52;100.00;95840.81;1017118;29;20260;-73
2023/07/27 02:24:55;;;;;;;6.30;2.75;;;;;;;8.52;100.00;95841.63;1024138;29;20023;-73
2023/07/27 02:25:25;;;;;;;3.20;2.00;;;;;;;8.50;100.00;95843.69;1019849;29;20259;-72
2023/07/27 02:25:56;;;;;;;4.88;2.80;;;;;;;8.52;100.00;95846.84;1023827;29;20038;-75
2023/07/27 02:26:27;;;;;;;3.13;2.13;;;;;;;8.47;100.00;95833.72;1027009;28;20026;-73
2023/07/27 02:26:57;;;;;;;2.15;1.90;;;;;;;8.52;100.00;95846.84;1016487;29;20024;-74
2023/07/27 02:27:28;;;;;;;2.78;2.03;;;;;;;8.50;100.00;95844.47;1024312;28;20756;-72
2023/07/27 02:27:58;;;;;;;3.75;2.45;;;;;;;8.52;100.00;95846.03;1024164;29;20027;-73
2023/07/27 02:28:29;;;;;;;6.55;2.65;;;;;;;8.53;100.00;95853.66;1020073;29;20039;-72
2023/07/27 02:28:59;;;;;;;3.15;2.60;;;;;;;8.53;100.00;95843.19;1016490;29;20039;-73
2023/07/27 02:29:30;;;;;;;3.42;2.35;;;;;;;8.53;100.00;95842.41;1024032;28;20031;-72
2023/07/27 02:30:01;;;;;;;3.45;2.28;;;;;;;8.52;100.00;95843.41;1020340;29;20433;-74
2023/07/27 02:30:31;;;;;;;3.65;2.00;;;;;;;8.46;100.00;95832.94;1019631;29;20485;-73
2023/07/27 02:31:02;;;;;;;3.35;1.98;;;;;;;8.46;100.00;95838.16;1016251;29;20272;-73
2023/07/27 02:31:32;;;;;;;3.75;2.78;;;;;;;8.51;100.00;95847.88;1023333;29;20449;-73
2023/07/27 02:32:03;;;;;;;2.95;1.98;;;;;;;8.50;100.00;95841.84;1020298;29;20038;-73
2023/07/27 02:32:33;;;;;;;8.18;2.95;;;;;;;8.50;100.00;95843.69;1024045;29;20159;-73
2023/07/27 02:33:04;;;;;;;5.88;2.17;;;;;;;8.49;100.00;95842.91;1024260;28;20642;-74
2023/07/27 02:33:34;;;;;;;5.38;2.50;;;;;;;8.43;100.00;95820.34;1020386;29;20027;-74